sensor_id;sensor_type;location;lat;lon;timestamp;P1;durP1;ratioP1;P2;durP2;ratioP2
6735;SDS011;3405;50.576;12.364;2023-05-07T00:01:35;13.43;;;9.65;;
6735;SDS011;3405;50.576;12.364;2023-05-07T00:04:01;12.05;;;9.40;;
6735;SDS011;3405;50.576;12.364;2023-05-07T00:06:28;12.68;;;9.32;;
6735;SDS011;3405;50.576;12.364;2023-05-07T00:08:54;11.50;;;9.48;;
6735;SDS011;3405;50.576;12.364;2023-05-07T00:11:20;13.30;;;9.43;;
6735;SDS011;3405;50.576;12.364;2023-05-07T00:13:47;12.63;;;9.35;;
6735;SDS011;3405;50.576;12.364;2023-05-07T00:16:13;11.70;;;8.88;;
6735;SDS011;3405;50.576;12.364;2023-05-07T00:18:39;12.43;;;8.90;;
6735;SDS011;3405;50.576;12.364;2023-05-07T00:21:05;11.80;;;8.88;;
6735;SDS011;3405;50.576;12.364;2023-05-07T00:23:31;10.43;;;8.43;;
6735;SDS011;3405;50.576;12.364;2023-05-07T00:25:56;9.73;;;8.38;;
6735;SDS011;3405;50.576;12.364;2023-05-07T00:28:22;10.82;;;8.15;;
6735;SDS011;3405;50.576;12.364;2023-05-07T00:30:48;12.30;;;8.90;;
6735;SDS011;3405;50.576;12.364;2023-05-07T00:33:14;10.48;;;8.23;;
6735;SDS011;3405;50.576;12.364;2023-05-07T00:35:41;11.82;;;9.20;;
6735;SDS011;3405;50.576;12.364;2023-05-07T00:38:07;11.38;;;8.55;;
6735;SDS011;3405;50.576;12.364;2023-05-07T00:40:33;11.13;;;9.45;;
6735;SDS011;3405;50.576;12.364;2023-05-07T00:42:59;11.23;;;8.95;;
6735;SDS011;3405;50.576;12.364;2023-05-07T00:45:28;12.32;;;8.75;;
6735;SDS011;3405;50.576;12.364;2023-05-07T00:47:55;12.07;;;8.40;;
6735;SDS011;3405;50.576;12.364;2023-05-07T00:50:21;12.45;;;8.07;;
6735;SDS011;3405;50.576;12.364;2023-05-07T00:52:47;12.48;;;8.38;;
6735;SDS011;3405;50.576;12.364;2023-05-07T00:55:13;10.45;;;8.55;;
6735;SDS011;3405;50.576;12.364;2023-05-07T00:57:40;10.30;;;7.95;;
6735;SDS011;3405;50.576;12.364;2023-05-07T01:00:06;10.88;;;8.63;;
6735;SDS011;3405;50.576;12.364;2023-05-07T01:02:33;11.85;;;8.18;;
6735;SDS011;3405;50.576;12.364;2023-05-07T01:04:59;10.07;;;7.47;;
6735;SDS011;3405;50.576;12.364;2023-05-07T01:07:26;11.98;;;8.77;;
6735;SDS011;3405;50.576;12.364;2023-05-07T01:09:52;12.30;;;9.05;;
6735;SDS011;3405;50.576;12.364;2023-05-07T01:12:19;14.43;;;9.05;;
6735;SDS011;3405;50.576;12.364;2023-05-07T01:14:45;10.32;;;8.45;;
6735;SDS011;3405;50.576;12.364;2023-05-07T01:17:11;13.35;;;9.98;;
6735;SDS011;3405;50.576;12.364;2023-05-07T01:19:36;11.85;;;8.20;;
6735;SDS011;3405;50.576;12.364;2023-05-07T01:22:04;12.57;;;9.10;;
6735;SDS011;3405;50.576;12.364;2023-05-07T01:24:32;11.95;;;9.20;;
6735;SDS011;3405;50.576;12.364;2023-05-07T01:26:59;11.82;;;9.00;;
6735;SDS011;3405;50.576;12.364;2023-05-07T01:29:26;11.13;;;8.35;;
6735;SDS011;3405;50.576;12.364;2023-05-07T01:31:52;11.43;;;9.27;;
6735;SDS011;3405;50.576;12.364;2023-05-07T01:34:18;11.20;;;8.88;;
6735;SDS011;3405;50.576;12.364;2023-05-07T01:36:46;11.13;;;8.52;;
6735;SDS011;3405;50.576;12.364;2023-05-07T01:39:12;11.30;;;8.88;;
6735;SDS011;3405;50.576;12.364;2023-05-07T01:41:39;11.43;;;8.93;;
6735;SDS011;3405;50.576;12.364;2023-05-07T01:44:05;11.63;;;8.82;;
6735;SDS011;3405;50.576;12.364;2023-05-07T01:46:31;10.75;;;8.57;;
6735;SDS011;3405;50.576;12.364;2023-05-07T01:48:57;12.02;;;8.95;;
6735;SDS011;3405;50.576;12.364;2023-05-07T01:51:23;12.73;;;9.63;;
6735;SDS011;3405;50.576;12.364;2023-05-07T01:53:50;13.45;;;9.18;;
6735;SDS011;3405;50.576;12.364;2023-05-07T01:56:18;12.10;;;8.95;;
6735;SDS011;3405;50.576;12.364;2023-05-07T01:58:45;11.20;;;8.43;;
6735;SDS011;3405;50.576;12.364;2023-05-07T02:01:12;12.05;;;8.52;;
6735;SDS011;3405;50.576;12.364;2023-05-07T02:03:38;13.30;;;9.05;;
6735;SDS011;3405;50.576;12.364;2023-05-07T02:06:04;13.93;;;9.45;;
6735;SDS011;3405;50.576;12.364;2023-05-07T02:08:30;11.63;;;9.20;;
6735;SDS011;3405;50.576;12.364;2023-05-07T02:10:56;15.80;;;9.45;;
6735;SDS011;3405;50.576;12.364;2023-05-07T02:13:22;11.63;;;8.52;;
6735;SDS011;3405;50.576;12.364;2023-05-07T02:15:49;11.35;;;8.35;;
6735;SDS011;3405;50.576;12.364;2023-05-07T02:18:16;12.63;;;9.88;;
6735;SDS011;3405;50.576;12.364;2023-05-07T02:20:42;15.18;;;9.85;;
6735;SDS011;3405;50.576;12.364;2023-05-07T02:23:08;11.60;;;8.23;;
6735;SDS011;3405;50.576;12.364;2023-05-07T02:25:34;12.25;;;9.15;;
6735;SDS011;3405;50.576;12.364;2023-05-07T02:28:00;11.07;;;8.48;;
6735;SDS011;3405;50.576;12.364;2023-05-07T02:30:26;13.32;;;9.30;;
6735;SDS011;3405;50.576;12.364;2023-05-07T02:32:52;12.63;;;9.43;;
6735;SDS011;3405;50.576;12.364;2023-05-07T02:35:18;13.32;;;9.50;;
6735;SDS011;3405;50.576;12.364;2023-05-07T02:37:44;13.75;;;9.82;;
6735;SDS011;3405;50.576;12.364;2023-05-07T02:40:10;12.55;;;8.95;;
6735;SDS011;3405;50.576;12.364;2023-05-07T02:42:36;11.82;;;8.70;;
6735;SDS011;3405;50.576;12.364;2023-05-07T02:45:02;16.40;;;10.18;;
6735;SDS011;3405;50.576;12.364;2023-05-07T02:47:28;12.68;;;9.63;;
6735;SDS011;3405;50.576;12.364;2023-05-07T02:49:54;14.13;;;9.70;;
6735;SDS011;3405;50.576;12.364;2023-05-07T02:52:21;12.82;;;10.40;;
6735;SDS011;3405;50.576;12.364;2023-05-07T02:54:48;15.15;;;9.50;;
6735;SDS011;3405;50.576;12.364;2023-05-07T02:57:14;13.85;;;8.93;;
6735;SDS011;3405;50.576;12.364;2023-05-07T02:59:41;13.20;;;9.20;;
6735;SDS011;3405;50.576;12.364;2023-05-07T03:02:06;15.60;;;9.45;;
6735;SDS011;3405;50.576;12.364;2023-05-07T03:04:32;12.85;;;9.55;;
6735;SDS011;3405;50.576;12.364;2023-05-07T03:06:58;12.90;;;9.05;;
6735;SDS011;3405;50.576;12.364;2023-05-07T03:09:24;11.25;;;8.82;;
6735;SDS011;3405;50.576;12.364;2023-05-07T03:11:50;12.30;;;8.63;;
6735;SDS011;3405;50.576;12.364;2023-05-07T03:14:16;13.40;;;8.85;;
6735;SDS011;3405;50.576;12.364;2023-05-07T03:16:42;12.80;;;9.60;;
6735;SDS011;3405;50.576;12.364;2023-05-07T03:19:08;13.00;;;9.32;;
6735;SDS011;3405;50.576;12.364;2023-05-07T03:21:34;13.75;;;9.18;;
6735;SDS011;3405;50.576;12.364;2023-05-07T03:24:00;13.38;;;9.13;;
6735;SDS011;3405;50.576;12.364;2023-05-07T03:26:26;11.70;;;8.63;;
6735;SDS011;3405;50.576;12.364;2023-05-07T03:28:52;13.02;;;8.30;;
6735;SDS011;3405;50.576;12.364;2023-05-07T03:31:18;12.45;;;8.68;;
6735;SDS011;3405;50.576;12.364;2023-05-07T03:33:54;11.60;;;8.63;;
6735;SDS011;3405;50.576;12.364;2023-05-07T03:36:20;13.25;;;9.15;;
6735;SDS011;3405;50.576;12.364;2023-05-07T03:38:46;13.52;;;8.55;;
6735;SDS011;3405;50.576;12.364;2023-05-07T03:41:12;12.80;;;8.75;;
6735;SDS011;3405;50.576;12.364;2023-05-07T03:43:38;10.98;;;8.25;;
6735;SDS011;3405;50.576;12.364;2023-05-07T03:46:04;11.68;;;8.50;;
6735;SDS011;3405;50.576;12.364;2023-05-07T03:48:30;10.32;;;8.13;;
6735;SDS011;3405;50.576;12.364;2023-05-07T03:50:59;14.18;;;8.32;;
6735;SDS011;3405;50.576;12.364;2023-05-07T03:53:25;10.45;;;8.02;;
6735;SDS011;3405;50.576;12.364;2023-05-07T03:55:51;10.27;;;7.85;;
6735;SDS011;3405;50.576;12.364;2023-05-07T03:58:17;10.98;;;8.30;;
6735;SDS011;3405;50.576;12.364;2023-05-07T04:00:42;10.98;;;7.72;;
6735;SDS011;3405;50.576;12.364;2023-05-07T04:03:08;10.98;;;8.18;;
6735;SDS011;3405;50.576;12.364;2023-05-07T04:05:34;11.60;;;8.05;;
6735;SDS011;3405;50.576;12.364;2023-05-07T04:08:00;9.82;;;7.55;;
6735;SDS011;3405;50.576;12.364;2023-05-07T04:10:27;10.90;;;7.95;;
6735;SDS011;3405;50.576;12.364;2023-05-07T04:12:53;9.60;;;7.53;;
6735;SDS011;3405;50.576;12.364;2023-05-07T04:15:19;12.45;;;8.02;;
6735;SDS011;3405;50.576;12.364;2023-05-07T04:17:45;11.75;;;8.23;;
6735;SDS011;3405;50.576;12.364;2023-05-07T04:20:14;11.93;;;7.88;;
6735;SDS011;3405;50.576;12.364;2023-05-07T04:22:40;13.43;;;7.95;;
6735;SDS011;3405;50.576;12.364;2023-05-07T04:25:06;12.23;;;7.28;;
6735;SDS011;3405;50.576;12.364;2023-05-07T04:27:34;10.13;;;7.35;;
6735;SDS011;3405;50.576;12.364;2023-05-07T04:29:59;10.48;;;8.05;;
6735;SDS011;3405;50.576;12.364;2023-05-07T04:32:26;12.40;;;8.05;;
6735;SDS011;3405;50.576;12.364;2023-05-07T04:34:53;11.02;;;7.82;;
6735;SDS011;3405;50.576;12.364;2023-05-07T04:37:20;11.80;;;8.05;;
6735;SDS011;3405;50.576;12.364;2023-05-07T04:39:46;10.15;;;6.70;;
6735;SDS011;3405;50.576;12.364;2023-05-07T04:42:17;17.30;;;7.65;;
6735;SDS011;3405;50.576;12.364;2023-05-07T04:44:44;15.00;;;7.75;;
6735;SDS011;3405;50.576;12.364;2023-05-07T04:47:10;11.30;;;7.50;;
6735;SDS011;3405;50.576;12.364;2023-05-07T04:49:36;11.73;;;6.50;;
6735;SDS011;3405;50.576;12.364;2023-05-07T04:52:02;17.20;;;7.28;;
6735;SDS011;3405;50.576;12.364;2023-05-07T04:54:28;11.00;;;7.18;;
6735;SDS011;3405;50.576;12.364;2023-05-07T04:56:54;9.50;;;6.65;;
6735;SDS011;3405;50.576;12.364;2023-05-07T04:59:20;10.32;;;6.43;;
6735;SDS011;3405;50.576;12.364;2023-05-07T05:01:46;17.83;;;7.68;;
6735;SDS011;3405;50.576;12.364;2023-05-07T05:04:12;25.10;;;9.70;;
6735;SDS011;3405;50.576;12.364;2023-05-07T05:06:38;20.40;;;8.57;;
6735;SDS011;3405;50.576;12.364;2023-05-07T05:09:04;23.98;;;8.88;;
6735;SDS011;3405;50.576;12.364;2023-05-07T05:11:31;19.85;;;8.23;;
6735;SDS011;3405;50.576;12.364;2023-05-07T05:13:56;15.25;;;7.40;;
6735;SDS011;3405;50.576;12.364;2023-05-07T05:16:22;15.57;;;7.43;;
6735;SDS011;3405;50.576;12.364;2023-05-07T05:18:48;9.40;;;6.55;;
6735;SDS011;3405;50.576;12.364;2023-05-07T05:21:16;11.73;;;7.20;;
6735;SDS011;3405;50.576;12.364;2023-05-07T05:23:42;9.93;;;6.90;;
6735;SDS011;3405;50.576;12.364;2023-05-07T05:26:08;12.77;;;6.97;;
6735;SDS011;3405;50.576;12.364;2023-05-07T05:28:34;15.95;;;6.80;;
6735;SDS011;3405;50.576;12.364;2023-05-07T05:31:00;8.75;;;6.50;;
6735;SDS011;3405;50.576;12.364;2023-05-07T05:33:26;10.95;;;6.05;;
6735;SDS011;3405;50.576;12.364;2023-05-07T05:35:53;13.90;;;7.38;;
6735;SDS011;3405;50.576;12.364;2023-05-07T05:38:19;11.82;;;6.43;;
6735;SDS011;3405;50.576;12.364;2023-05-07T05:40:45;10.52;;;6.28;;
6735;SDS011;3405;50.576;12.364;2023-05-07T05:43:11;12.85;;;5.85;;
6735;SDS011;3405;50.576;12.364;2023-05-07T05:45:37;9.50;;;6.45;;
6735;SDS011;3405;50.576;12.364;2023-05-07T05:48:03;11.85;;;6.05;;
6735;SDS011;3405;50.576;12.364;2023-05-07T05:50:29;9.15;;;5.53;;
6735;SDS011;3405;50.576;12.364;2023-05-07T05:52:55;12.55;;;7.60;;
6735;SDS011;3405;50.576;12.364;2023-05-07T05:55:21;13.10;;;7.22;;
6735;SDS011;3405;50.576;12.364;2023-05-07T05:57:47;11.77;;;6.85;;
6735;SDS011;3405;50.576;12.364;2023-05-07T06:00:13;12.68;;;6.40;;
6735;SDS011;3405;50.576;12.364;2023-05-07T06:02:39;10.45;;;5.32;;
6735;SDS011;3405;50.576;12.364;2023-05-07T06:05:05;9.10;;;6.10;;
6735;SDS011;3405;50.576;12.364;2023-05-07T06:07:31;14.05;;;6.63;;
6735;SDS011;3405;50.576;12.364;2023-05-07T06:09:57;7.85;;;5.20;;
6735;SDS011;3405;50.576;12.364;2023-05-07T06:12:23;8.57;;;5.18;;
6735;SDS011;3405;50.576;12.364;2023-05-07T06:14:49;9.52;;;6.57;;
6735;SDS011;3405;50.576;12.364;2023-05-07T06:17:15;8.95;;;6.13;;
6735;SDS011;3405;50.576;12.364;2023-05-07T06:19:41;12.02;;;6.78;;
6735;SDS011;3405;50.576;12.364;2023-05-07T06:22:07;8.13;;;6.13;;
6735;SDS011;3405;50.576;12.364;2023-05-07T06:24:33;12.07;;;6.30;;
6735;SDS011;3405;50.576;12.364;2023-05-07T06:26:59;8.40;;;4.82;;
6735;SDS011;3405;50.576;12.364;2023-05-07T06:29:25;8.02;;;6.00;;
6735;SDS011;3405;50.576;12.364;2023-05-07T06:31:54;10.70;;;5.20;;
6735;SDS011;3405;50.576;12.364;2023-05-07T06:34:20;7.70;;;6.28;;
6735;SDS011;3405;50.576;12.364;2023-05-07T06:36:45;8.05;;;5.93;;
6735;SDS011;3405;50.576;12.364;2023-05-07T06:39:11;11.57;;;6.95;;
6735;SDS011;3405;50.576;12.364;2023-05-07T06:41:37;7.47;;;5.35;;
6735;SDS011;3405;50.576;12.364;2023-05-07T06:44:04;10.25;;;6.00;;
6735;SDS011;3405;50.576;12.364;2023-05-07T06:46:30;8.95;;;6.40;;
6735;SDS011;3405;50.576;12.364;2023-05-07T06:48:56;7.68;;;5.57;;
6735;SDS011;3405;50.576;12.364;2023-05-07T06:51:22;7.65;;;6.18;;
6735;SDS011;3405;50.576;12.364;2023-05-07T06:53:48;9.05;;;6.22;;
6735;SDS011;3405;50.576;12.364;2023-05-07T06:56:14;8.00;;;6.53;;
6735;SDS011;3405;50.576;12.364;2023-05-07T06:58:40;7.88;;;5.93;;
6735;SDS011;3405;50.576;12.364;2023-05-07T07:01:06;12.88;;;7.07;;
6735;SDS011;3405;50.576;12.364;2023-05-07T07:03:31;10.30;;;6.90;;
6735;SDS011;3405;50.576;12.364;2023-05-07T07:05:57;8.55;;;6.60;;
6735;SDS011;3405;50.576;12.364;2023-05-07T07:08:24;7.93;;;6.22;;
6735;SDS011;3405;50.576;12.364;2023-05-07T07:10:50;11.63;;;6.57;;
6735;SDS011;3405;50.576;12.364;2023-05-07T07:13:16;6.95;;;5.82;;
6735;SDS011;3405;50.576;12.364;2023-05-07T07:15:42;8.35;;;6.65;;
6735;SDS011;3405;50.576;12.364;2023-05-07T07:18:08;7.38;;;6.22;;
6735;SDS011;3405;50.576;12.364;2023-05-07T07:20:34;7.18;;;5.75;;
6735;SDS011;3405;50.576;12.364;2023-05-07T07:23:00;9.55;;;6.65;;
6735;SDS011;3405;50.576;12.364;2023-05-07T07:25:26;10.82;;;5.85;;
6735;SDS011;3405;50.576;12.364;2023-05-07T07:27:52;10.20;;;5.82;;
6735;SDS011;3405;50.576;12.364;2023-05-07T07:30:18;8.63;;;5.80;;
6735;SDS011;3405;50.576;12.364;2023-05-07T07:32:44;8.00;;;6.10;;
6735;SDS011;3405;50.576;12.364;2023-05-07T07:35:10;10.88;;;6.85;;
6735;SDS011;3405;50.576;12.364;2023-05-07T07:37:36;8.15;;;6.28;;
6735;SDS011;3405;50.576;12.364;2023-05-07T07:40:02;7.82;;;5.60;;
6735;SDS011;3405;50.576;12.364;2023-05-07T07:42:28;8.25;;;5.78;;
6735;SDS011;3405;50.576;12.364;2023-05-07T07:44:54;6.80;;;5.72;;
6735;SDS011;3405;50.576;12.364;2023-05-07T07:47:22;9.05;;;6.78;;
6735;SDS011;3405;50.576;12.364;2023-05-07T07:49:47;8.90;;;5.78;;
6735;SDS011;3405;50.576;12.364;2023-05-07T07:52:13;10.70;;;6.80;;
6735;SDS011;3405;50.576;12.364;2023-05-07T07:54:39;9.55;;;5.60;;
6735;SDS011;3405;50.576;12.364;2023-05-07T07:57:05;6.07;;;5.30;;
6735;SDS011;3405;50.576;12.364;2023-05-07T07:59:31;8.88;;;5.95;;
6735;SDS011;3405;50.576;12.364;2023-05-07T08:01:57;7.72;;;5.60;;
6735;SDS011;3405;50.576;12.364;2023-05-07T08:04:23;5.78;;;4.90;;
6735;SDS011;3405;50.576;12.364;2023-05-07T08:06:49;7.88;;;5.88;;
6735;SDS011;3405;50.576;12.364;2023-05-07T08:09:15;7.13;;;5.70;;
6735;SDS011;3405;50.576;12.364;2023-05-07T08:11:41;8.25;;;6.25;;
6735;SDS011;3405;50.576;12.364;2023-05-07T08:14:07;7.75;;;5.63;;
6735;SDS011;3405;50.576;12.364;2023-05-07T08:16:32;7.22;;;5.07;;
6735;SDS011;3405;50.576;12.364;2023-05-07T08:18:58;7.93;;;6.05;;
6735;SDS011;3405;50.576;12.364;2023-05-07T08:21:24;6.05;;;4.72;;
6735;SDS011;3405;50.576;12.364;2023-05-07T08:23:51;7.07;;;5.38;;
6735;SDS011;3405;50.576;12.364;2023-05-07T08:26:16;7.60;;;5.78;;
6735;SDS011;3405;50.576;12.364;2023-05-07T08:28:42;7.38;;;5.78;;
6735;SDS011;3405;50.576;12.364;2023-05-07T08:31:08;6.68;;;4.75;;
6735;SDS011;3405;50.576;12.364;2023-05-07T08:33:34;6.75;;;5.18;;
6735;SDS011;3405;50.576;12.364;2023-05-07T08:36:00;6.68;;;5.28;;
6735;SDS011;3405;50.576;12.364;2023-05-07T08:38:26;8.00;;;5.28;;
6735;SDS011;3405;50.576;12.364;2023-05-07T08:40:52;6.68;;;5.28;;
6735;SDS011;3405;50.576;12.364;2023-05-07T08:43:18;6.47;;;5.05;;
6735;SDS011;3405;50.576;12.364;2023-05-07T08:45:45;6.07;;;5.35;;
6735;SDS011;3405;50.576;12.364;2023-05-07T08:48:14;7.07;;;4.57;;
6735;SDS011;3405;50.576;12.364;2023-05-07T08:50:40;5.63;;;4.75;;
6735;SDS011;3405;50.576;12.364;2023-05-07T08:53:06;5.00;;;4.40;;
6735;SDS011;3405;50.576;12.364;2023-05-07T08:55:32;6.70;;;4.95;;
6735;SDS011;3405;50.576;12.364;2023-05-07T08:57:59;6.00;;;4.45;;
6735;SDS011;3405;50.576;12.364;2023-05-07T09:00:26;5.15;;;4.63;;
6735;SDS011;3405;50.576;12.364;2023-05-07T09:02:52;5.40;;;4.63;;
6735;SDS011;3405;50.576;12.364;2023-05-07T09:05:18;5.68;;;4.20;;
6735;SDS011;3405;50.576;12.364;2023-05-07T09:07:45;6.43;;;4.93;;
6735;SDS011;3405;50.576;12.364;2023-05-07T09:10:11;6.70;;;4.53;;
6735;SDS011;3405;50.576;12.364;2023-05-07T09:12:37;7.70;;;4.82;;
6735;SDS011;3405;50.576;12.364;2023-05-07T09:15:04;5.57;;;4.97;;
6735;SDS011;3405;50.576;12.364;2023-05-07T09:17:30;5.82;;;4.28;;
6735;SDS011;3405;50.576;12.364;2023-05-07T09:19:56;5.40;;;4.30;;
6735;SDS011;3405;50.576;12.364;2023-05-07T09:22:22;5.13;;;4.47;;
6735;SDS011;3405;50.576;12.364;2023-05-07T09:24:48;4.93;;;4.20;;
6735;SDS011;3405;50.576;12.364;2023-05-07T09:27:14;5.38;;;4.68;;
6735;SDS011;3405;50.576;12.364;2023-05-07T09:29:40;5.50;;;3.97;;
6735;SDS011;3405;50.576;12.364;2023-05-07T09:32:07;4.57;;;4.10;;
6735;SDS011;3405;50.576;12.364;2023-05-07T09:34:33;5.53;;;4.55;;
6735;SDS011;3405;50.576;12.364;2023-05-07T09:37:03;9.93;;;4.80;;
6735;SDS011;3405;50.576;12.364;2023-05-07T09:42:25;8.82;;;4.95;;
6735;SDS011;3405;50.576;12.364;2023-05-07T09:44:54;7.88;;;4.95;;
6735;SDS011;3405;50.576;12.364;2023-05-07T09:47:20;8.30;;;4.50;;
6735;SDS011;3405;50.576;12.364;2023-05-07T09:49:49;5.88;;;4.47;;
6735;SDS011;3405;50.576;12.364;2023-05-07T09:52:15;9.35;;;4.85;;
6735;SDS011;3405;50.576;12.364;2023-05-07T09:54:41;7.22;;;4.93;;
6735;SDS011;3405;50.576;12.364;2023-05-07T09:57:09;6.47;;;4.63;;
6735;SDS011;3405;50.576;12.364;2023-05-07T09:59:37;4.95;;;4.07;;
6735;SDS011;3405;50.576;12.364;2023-05-07T10:02:04;6.93;;;4.05;;
6735;SDS011;3405;50.576;12.364;2023-05-07T10:04:31;7.63;;;4.55;;
6735;SDS011;3405;50.576;12.364;2023-05-07T10:06:58;8.57;;;4.38;;
6735;SDS011;3405;50.576;12.364;2023-05-07T10:09:25;4.65;;;4.00;;
6735;SDS011;3405;50.576;12.364;2023-05-07T10:11:51;6.97;;;4.13;;
6735;SDS011;3405;50.576;12.364;2023-05-07T10:14:19;5.47;;;3.97;;
6735;SDS011;3405;50.576;12.364;2023-05-07T10:16:46;5.75;;;4.00;;
6735;SDS011;3405;50.576;12.364;2023-05-07T10:19:13;7.43;;;3.85;;
6735;SDS011;3405;50.576;12.364;2023-05-07T10:21:54;7.18;;;4.07;;
6735;SDS011;3405;50.576;12.364;2023-05-07T10:24:24;6.68;;;4.10;;
6735;SDS011;3405;50.576;12.364;2023-05-07T10:26:51;6.18;;;4.00;;
6735;SDS011;3405;50.576;12.364;2023-05-07T10:29:21;5.95;;;4.22;;
6735;SDS011;3405;50.576;12.364;2023-05-07T10:34:36;6.25;;;4.82;;
6735;SDS011;3405;50.576;12.364;2023-05-07T10:37:03;8.60;;;5.45;;
6735;SDS011;3405;50.576;12.364;2023-05-07T10:39:29;9.35;;;5.80;;
6735;SDS011;3405;50.576;12.364;2023-05-07T10:41:55;11.20;;;5.63;;
6735;SDS011;3405;50.576;12.364;2023-05-07T10:44:25;11.00;;;5.90;;
6735;SDS011;3405;50.576;12.364;2023-05-07T10:47:04;18.02;;;6.68;;
6735;SDS011;3405;50.576;12.364;2023-05-07T10:49:31;16.58;;;7.80;;
6735;SDS011;3405;50.576;12.364;2023-05-07T10:52:10;23.10;;;7.85;;
6735;SDS011;3405;50.576;12.364;2023-05-07T10:54:37;18.55;;;7.90;;
6735;SDS011;3405;50.576;12.364;2023-05-07T10:59:48;16.45;;;6.45;;
6735;SDS011;3405;50.576;12.364;2023-05-07T11:02:14;17.45;;;6.20;;
6735;SDS011;3405;50.576;12.364;2023-05-07T11:04:40;11.30;;;6.30;;
6735;SDS011;3405;50.576;12.364;2023-05-07T11:07:26;13.93;;;6.30;;
6735;SDS011;3405;50.576;12.364;2023-05-07T11:15:05;10.48;;;5.38;;
6735;SDS011;3405;50.576;12.364;2023-05-07T11:17:31;11.10;;;6.10;;
6735;SDS011;3405;50.576;12.364;2023-05-07T11:20:00;21.02;;;7.45;;
6735;SDS011;3405;50.576;12.364;2023-05-07T11:25:00;16.95;;;6.70;;
6735;SDS011;3405;50.576;12.364;2023-05-07T11:27:27;18.73;;;7.65;;
6735;SDS011;3405;50.576;12.364;2023-05-07T11:29:53;15.27;;;6.78;;
6735;SDS011;3405;50.576;12.364;2023-05-07T11:32:22;12.38;;;5.05;;
6735;SDS011;3405;50.576;12.364;2023-05-07T11:34:51;11.43;;;5.57;;
6735;SDS011;3405;50.576;12.364;2023-05-07T11:37:17;9.52;;;5.32;;
6735;SDS011;3405;50.576;12.364;2023-05-07T11:39:43;12.32;;;5.25;;
6735;SDS011;3405;50.576;12.364;2023-05-07T11:42:28;9.05;;;4.40;;
6735;SDS011;3405;50.576;12.364;2023-05-07T11:44:54;5.75;;;3.92;;
6735;SDS011;3405;50.576;12.364;2023-05-07T11:47:20;10.50;;;4.45;;
6735;SDS011;3405;50.576;12.364;2023-05-07T11:49:47;8.07;;;3.95;;
6735;SDS011;3405;50.576;12.364;2023-05-07T11:52:13;8.90;;;4.43;;
6735;SDS011;3405;50.576;12.364;2023-05-07T11:54:39;5.90;;;4.07;;
6735;SDS011;3405;50.576;12.364;2023-05-07T11:57:05;12.88;;;4.18;;
6735;SDS011;3405;50.576;12.364;2023-05-07T11:59:38;6.45;;;3.67;;
6735;SDS011;3405;50.576;12.364;2023-05-07T12:02:05;7.70;;;3.85;;
6735;SDS011;3405;50.576;12.364;2023-05-07T12:04:31;4.45;;;3.55;;
6735;SDS011;3405;50.576;12.364;2023-05-07T12:06:57;5.75;;;3.83;;
6735;SDS011;3405;50.576;12.364;2023-05-07T12:09:23;4.72;;;3.33;;
6735;SDS011;3405;50.576;12.364;2023-05-07T12:11:49;6.40;;;3.83;;
6735;SDS011;3405;50.576;12.364;2023-05-07T12:14:17;6.25;;;3.70;;
6735;SDS011;3405;50.576;12.364;2023-05-07T12:16:43;5.05;;;4.13;;
6735;SDS011;3405;50.576;12.364;2023-05-07T12:19:09;5.78;;;3.53;;
6735;SDS011;3405;50.576;12.364;2023-05-07T12:21:38;5.10;;;3.70;;
6735;SDS011;3405;50.576;12.364;2023-05-07T12:24:04;5.65;;;4.40;;
6735;SDS011;3405;50.576;12.364;2023-05-07T12:26:30;3.90;;;3.20;;
6735;SDS011;3405;50.576;12.364;2023-05-07T12:28:57;5.00;;;4.03;;
6735;SDS011;3405;50.576;12.364;2023-05-07T12:31:25;7.63;;;3.85;;
6735;SDS011;3405;50.576;12.364;2023-05-07T12:33:51;6.13;;;3.38;;
6735;SDS011;3405;50.576;12.364;2023-05-07T12:36:17;4.63;;;3.22;;
6735;SDS011;3405;50.576;12.364;2023-05-07T12:38:43;4.45;;;3.17;;
6735;SDS011;3405;50.576;12.364;2023-05-07T12:41:09;4.63;;;3.20;;
6735;SDS011;3405;50.576;12.364;2023-05-07T12:43:35;3.45;;;3.15;;
6735;SDS011;3405;50.576;12.364;2023-05-07T12:46:03;3.20;;;2.90;;
6735;SDS011;3405;50.576;12.364;2023-05-07T12:48:29;3.70;;;3.40;;
6735;SDS011;3405;50.576;12.364;2023-05-07T12:50:56;3.90;;;2.75;;
6735;SDS011;3405;50.576;12.364;2023-05-07T12:53:23;3.85;;;3.17;;
6735;SDS011;3405;50.576;12.364;2023-05-07T12:55:51;4.07;;;3.22;;
6735;SDS011;3405;50.576;12.364;2023-05-07T12:58:18;3.95;;;3.53;;
6735;SDS011;3405;50.576;12.364;2023-05-07T13:00:44;3.25;;;2.80;;
6735;SDS011;3405;50.576;12.364;2023-05-07T13:03:11;2.97;;;2.67;;
6735;SDS011;3405;50.576;12.364;2023-05-07T13:05:37;5.22;;;3.20;;
6735;SDS011;3405;50.576;12.364;2023-05-07T13:08:03;3.55;;;2.53;;
6735;SDS011;3405;50.576;12.364;2023-05-07T13:10:30;4.22;;;2.92;;
6735;SDS011;3405;50.576;12.364;2023-05-07T13:12:57;3.85;;;3.20;;
6735;SDS011;3405;50.576;12.364;2023-05-07T13:15:23;3.45;;;2.78;;
6735;SDS011;3405;50.576;12.364;2023-05-07T13:17:49;4.68;;;3.40;;
6735;SDS011;3405;50.576;12.364;2023-05-07T13:20:15;3.92;;;3.20;;
6735;SDS011;3405;50.576;12.364;2023-05-07T13:22:41;3.55;;;2.47;;
6735;SDS011;3405;50.576;12.364;2023-05-07T13:25:07;3.22;;;2.80;;
6735;SDS011;3405;50.576;12.364;2023-05-07T13:27:33;3.25;;;2.90;;
6735;SDS011;3405;50.576;12.364;2023-05-07T13:30:05;3.72;;;3.30;;
6735;SDS011;3405;50.576;12.364;2023-05-07T13:32:32;3.13;;;2.83;;
6735;SDS011;3405;50.576;12.364;2023-05-07T13:34:58;3.15;;;2.90;;
6735;SDS011;3405;50.576;12.364;2023-05-07T13:37:24;4.22;;;2.90;;
6735;SDS011;3405;50.576;12.364;2023-05-07T13:39:50;2.78;;;2.47;;
6735;SDS011;3405;50.576;12.364;2023-05-07T13:42:16;2.95;;;2.65;;
6735;SDS011;3405;50.576;12.364;2023-05-07T13:44:42;3.40;;;3.10;;
6735;SDS011;3405;50.576;12.364;2023-05-07T13:47:08;4.40;;;2.88;;
6735;SDS011;3405;50.576;12.364;2023-05-07T13:49:34;2.95;;;2.65;;
6735;SDS011;3405;50.576;12.364;2023-05-07T13:52:00;2.70;;;2.50;;
6735;SDS011;3405;50.576;12.364;2023-05-07T13:54:26;3.55;;;3.03;;
6735;SDS011;3405;50.576;12.364;2023-05-07T13:56:52;3.15;;;2.85;;
6735;SDS011;3405;50.576;12.364;2023-05-07T13:59:18;3.65;;;2.83;;
6735;SDS011;3405;50.576;12.364;2023-05-07T14:01:44;3.40;;;3.10;;
6735;SDS011;3405;50.576;12.364;2023-05-07T14:04:10;3.22;;;2.90;;
6735;SDS011;3405;50.576;12.364;2023-05-07T14:06:36;3.17;;;2.78;;
6735;SDS011;3405;50.576;12.364;2023-05-07T14:09:02;3.75;;;3.30;;
6735;SDS011;3405;50.576;12.364;2023-05-07T14:11:28;3.33;;;2.70;;
6735;SDS011;3405;50.576;12.364;2023-05-07T14:13:54;4.22;;;3.10;;
6735;SDS011;3405;50.576;12.364;2023-05-07T14:16:21;4.65;;;2.90;;
6735;SDS011;3405;50.576;12.364;2023-05-07T14:18:47;2.90;;;2.60;;
6735;SDS011;3405;50.576;12.364;2023-05-07T14:21:13;4.25;;;3.03;;
6735;SDS011;3405;50.576;12.364;2023-05-07T14:23:39;2.72;;;2.40;;
6735;SDS011;3405;50.576;12.364;2023-05-07T14:26:05;3.10;;;2.80;;
6735;SDS011;3405;50.576;12.364;2023-05-07T14:28:31;3.05;;;2.72;;
6735;SDS011;3405;50.576;12.364;2023-05-07T14:30:57;3.33;;;2.60;;
6735;SDS011;3405;50.576;12.364;2023-05-07T14:33:23;3.97;;;2.50;;
6735;SDS011;3405;50.576;12.364;2023-05-07T14:35:49;2.83;;;2.60;;
6735;SDS011;3405;50.576;12.364;2023-05-07T14:38:15;2.80;;;2.47;;
6735;SDS011;3405;50.576;12.364;2023-05-07T14:40:41;2.38;;;2.15;;
6735;SDS011;3405;50.576;12.364;2023-05-07T14:43:07;2.50;;;2.30;;
6735;SDS011;3405;50.576;12.364;2023-05-07T14:45:33;3.17;;;2.67;;
6735;SDS011;3405;50.576;12.364;2023-05-07T14:47:59;2.95;;;2.75;;
6735;SDS011;3405;50.576;12.364;2023-05-07T14:50:25;2.88;;;2.67;;
6735;SDS011;3405;50.576;12.364;2023-05-07T14:52:51;2.78;;;2.53;;
6735;SDS011;3405;50.576;12.364;2023-05-07T14:55:17;2.90;;;2.70;;
6735;SDS011;3405;50.576;12.364;2023-05-07T14:57:43;3.15;;;2.85;;
6735;SDS011;3405;50.576;12.364;2023-05-07T15:00:09;3.03;;;2.83;;
6735;SDS011;3405;50.576;12.364;2023-05-07T15:02:36;2.58;;;2.38;;
6735;SDS011;3405;50.576;12.364;2023-05-07T15:05:02;3.15;;;2.88;;
6735;SDS011;3405;50.576;12.364;2023-05-07T15:07:28;4.45;;;3.03;;